Latest Coastal Weather Observations for Kiama

IDN60701

Issued at 12:31 pm EDT Tuesday 9 February 2016 (issued every 10 minutes, with the page automatically refreshed every 10 minutes)

About coastal observations | Map of coastal stations | Coastal observations for NSW | Marine services | Other Formats
Station Details ID: 068242 Name: KIAMA (BOMBO HEADLAND) Lat: -34.65 Lon: 150.86 Height: 15.5 m
Data from the previous 72 hours. | See also: Recent months at Kiama
Date/Time
EDT
Temp

°C
Wind Pressure Rain
since 9am
mm
Weather Cloud Vis
km
Sea
Height
m
Swell
Dir
 
Speed
knots
Gust
knots
hPa Trend Height
m
Period
s
Dir
09/12:30pm 23.1 SSE 15 18 - - 0.0 - - - - - - -
09/12:00pm 23.2 S 14 17 - - 0.0 - - - - - - -
09/11:30am 23.1 S 13 18 - - 0.0 - - - - - - -
09/11:00am 23.0 S 13 17 - - 0.0 - - - - - - -
09/10:30am 23.2 S 13 18 - - 0.0 - - - - - - -
09/10:00am 22.6 S 13 18 - - 0.0 - - - - - - -
09/09:30am 22.5 S 13 19 - - 0.0 - - - - - - -
09/09:00am 22.7 SSE 15 19 - - 0.0 - - - - - - -
09/08:30am 22.6 S 15 20 - - 0.0 - - - - - - -
09/08:00am 22.3 S 15 19 - - 0.0 - - - - - - -
09/07:30am 22.1 S 13 17 - - 0.0 - - - - - - -
09/07:00am 22.1 S 13 18 - - 0.0 - - - - - - -
09/06:30am 22.0 S 14 19 - - 0.0 - - - - - - -
09/06:00am 22.2 S 15 19 - - 0.0 - - - - - - -
09/05:30am 22.3 S 13 18 - - 0.0 - - - - - - -
09/05:00am 22.0 SSW 12 16 - - 0.0 - - - - - - -
09/04:30am 21.4 SW 9 12 - - 0.0 - - - - - - -
09/04:00am 20.9 WSW 4 6 - - 0.0 - - - - - - -
09/03:30am 21.0 WSW 5 7 - - 0.0 - - - - - - -
09/03:00am 21.4 WSW 5 7 - - 0.0 - - - - - - -
09/02:30am 21.7 SW 6 8 - - 0.0 - - - - - - -
09/02:00am 22.3 SSW 5 6 - - 0.0 - - - - - - -
09/01:30am 22.5 SSW 9 11 - - 0.0 - - - - - - -
09/01:00am 22.3 SSW 6 9 - - 0.0 - - - - - - -
09/12:30am 21.9 SW 7 9 - - 0.0 - - - - - - -
09/12:00am 21.5 SW 5 6 - - 0.0 - - - - - - -
 
Date/Time
EDT
Temp

°C
Wind Pressure Rain
since 9am
mm
Weather Cloud Vis
km
Sea
Height
m
Swell
Dir
 
Speed
knots
Gust
knots
hPa Trend Height
m
Period
s
Dir
08/11:30pm 21.9 SW 6 8 - - 0.0 - - - - - - -
08/11:00pm 22.1 SSW 6 7 - - 0.0 - - - - - - -
08/10:30pm 22.4 SSW 7 9 - - 0.0 - - - - - - -
08/10:00pm 22.4 SSW 6 9 - - 0.0 - - - - - - -
08/09:30pm 22.8 SSW 5 6 - - 0.0 - - - - - - -
08/09:00pm 23.3 SSE 5 7 - - 0.0 - - - - - - -
08/08:30pm 23.1 ESE 4 5 - - 0.0 - - - - - - -
08/08:00pm 23.2 E 2 3 - - 0.0 - - - - - - -
08/07:30pm 23.7 E 2 3 - - 0.0 - - - - - - -
08/07:00pm 24.4 E 2 2 - - 0.0 - - - - - - -
08/06:30pm 24.8 E 2 3 - - 0.0 - - - - - - -
08/06:00pm 25.1 E 3 4 - - 0.0 - - - - - - -
08/05:30pm 25.1 E 3 4 - - 0.0 - - - - - - -
08/05:00pm 25.3 E 3 5 - - 0.0 - - - - - - -
08/04:30pm 25.6 E 3 5 - - 0.0 - - - - - - -
08/04:00pm 25.6 E 4 5 - - 0.0 - - - - - - -
08/03:30pm 25.9 E 4 5 - - 0.0 - - - - - - -
08/03:00pm 25.7 E 4 6 - - 0.0 - - - - - - -
08/02:30pm 25.2 SE 5 7 - - 0.0 - - - - - - -
08/02:00pm 25.6 SE 6 7 - - 0.0 - - - - - - -
08/01:30pm 25.3 SE 6 7 - - 0.0 - - - - - - -
08/01:00pm 25.0 SE 6 7 - - 0.0 - - - - - - -
08/12:30pm 25.2 SE 6 7 - - 0.0 - - - - - - -
08/12:00pm 24.7 SE 5 6 - - 0.0 - - - - - - -
08/11:30am 24.9 SE 4 5 - - 0.0 - - - - - - -
08/11:00am 24.4 SE 5 5 - - 0.0 - - - - - - -
08/10:30am 24.5 SE 5 6 - - 0.0 - - - - - - -
08/10:00am 23.7 SE 6 6 - - 0.0 - - - - - - -
08/09:30am 23.6 SE 5 6 - - 0.0 - - - - - - -
08/09:00am 23.1 SSE 6 6 - - 0.0 - - - - - - -
08/08:30am 23.1 S 4 6 - - 0.0 - - - - - - -
08/08:00am 21.9 CALM 0 0 - - 0.0 - - - - - - -
08/07:30am 20.3 W 2 3 - - 0.0 - - - - - - -
08/07:00am 18.9 W 4 5 - - 0.0 - - - - - - -
08/06:30am 18.6 W 4 5 - - 0.0 - - - - - - -
08/06:00am 19.1 W 4 5 - - 0.0 - - - - - - -
08/05:30am 19.0 W 6 6 - - 0.0 - - - - - - -
08/05:00am 18.6 W 5 6 - - 0.0 - - - - - - -
08/04:30am 19.2 W 5 6 - - 0.0 - - - - - - -
08/04:00am 19.1 W 4 5 - - 0.0 - - - - - - -
08/03:30am 19.2 W 5 6 - - 0.0 - - - - - - -
08/03:00am 19.3 W 6 6 - - 0.0 - - - - - - -
08/02:30am 19.8 W 4 5 - - 0.0 - - - - - - -
08/02:00am 19.7 W 4 5 - - 0.0 - - - - - - -
08/01:30am 19.7 W 5 6 - - 0.0 - - - - - - -
08/01:00am 19.7 W 5 6 - - 0.0 - - - - - - -
08/12:30am 19.6 WNW 6 7 - - 0.0 - - - - - - -
08/12:00am 19.9 WNW 5 6 - - 0.0 - - - - - - -
 
Date/Time
EDT
Temp

°C
Wind Pressure Rain
since 9am
mm
Weather Cloud Vis
km
Sea
Height
m
Swell
Dir
 
Speed
knots
Gust
knots
hPa Trend Height
m
Period
s
Dir
07/11:30pm 20.3 WNW 5 5 - - 0.0 - - - - - - -
07/11:00pm 20.0 WNW 5 6 - - 0.0 - - - - - - -
07/10:30pm 20.0 W 5 6 - - 0.0 - - - - - - -
07/10:00pm 20.4 WNW 5 6 - - 0.0 - - - - - - -
07/09:30pm 21.0 WNW 3 4 - - 0.0 - - - - - - -
07/09:00pm 21.8 N 2 3 - - 0.0 - - - - - - -
07/08:30pm 22.1 N 3 3 - - 0.0 - - - - - - -
07/08:00pm 22.4 NNE 2 4 - - 0.0 - - - - - - -
07/07:30pm 23.2 NNE 4 5 - - 0.0 - - - - - - -
07/07:00pm 23.8 NE 4 5 - - 0.0 - - - - - - -
07/06:30pm 24.5 NE 2 4 - - 0.0 - - - - - - -
07/06:00pm 24.8 NE 2 4 - - 0.0 - - - - - - -
07/05:30pm 25.0 ENE 3 5 - - 0.0 - - - - - - -
07/05:00pm 25.0 ENE 4 5 - - 0.0 - - - - - - -
07/04:30pm 25.1 E 4 6 - - 0.0 - - - - - - -
07/04:00pm 24.8 ESE 5 7 - - 0.0 - - - - - - -
07/03:30pm 25.2 E 4 7 - - 0.0 - - - - - - -
07/03:00pm 24.9 SE 5 6 - - 0.0 - - - - - - -
07/02:30pm 24.5 SE 6 7 - - 0.0 - - - - - - -
07/02:00pm 24.1 SE 6 8 - - 0.0 - - - - - - -
07/01:30pm 23.9 SE 7 9 - - 0.0 - - - - - - -
07/01:00pm 23.9 SE 7 9 - - 0.0 - - - - - - -
07/12:30pm 23.8 SE 8 9 - - 0.0 - - - - - - -
07/12:00pm 23.5 SSE 9 11 - - 0.0 - - - - - - -
07/11:30am 23.2 SSE 9 10 - - 0.0 - - - - - - -
07/11:00am 23.3 SSE 9 10 - - 0.0 - - - - - - -
07/10:30am 23.3 S 7 10 - - 0.0 - - - - - - -
07/10:00am 22.9 S 7 9 - - 0.0 - - - - - - -
07/09:30am 22.6 SSW 9 11 - - 0.0 - - - - - - -
07/09:00am 22.0 SSW 9 11 - - 0.0 - - - - - - -
07/08:30am 21.5 SSW 8 10 - - 0.0 - - - - - - -
07/08:00am 21.2 SSW 8 9 - - 0.0 - - - - - - -
07/07:30am 20.6 SW 6 7 - - 0.0 - - - - - - -
07/07:00am 20.2 SW 5 7 - - 0.0 - - - - - - -
07/06:30am 20.1 SW 5 8 - - 0.0 - - - - - - -
07/06:00am 20.1 SW 4 6 - - 0.0 - - - - - - -
07/05:30am 20.1 SW 4 6 - - 0.0 - - - - - - -
07/05:00am 20.3 SW 3 5 - - 0.0 - - - - - - -
07/04:30am 20.4 SW 7 10 - - 0.0 - - - - - - -
07/04:00am 20.3 SW 6 8 - - 0.0 - - - - - - -
07/03:30am 20.6 SSW 9 11 - - 0.0 - - - - - - -
07/03:00am 20.6 SSW 10 12 - - 0.0 - - - - - - -
07/02:30am 19.9 SW 5 7 - - 0.0 - - - - - - -
07/02:00am 20.0 SW 4 6 - - 0.0 - - - - - - -
07/01:30am 20.8 SW 3 4 - - 0.0 - - - - - - -
07/01:00am 21.3 SW 3 5 - - 0.0 - - - - - - -
07/12:30am 21.4 SSW 5 7 - - 0.0 - - - - - - -
07/12:00am 21.6 SSW 7 9 - - 0.0 - - - - - - -
 
Date/Time
EDT
Temp

°C
Wind Pressure Rain
since 9am
mm
Weather Cloud Vis
km
Sea
Height
m
Swell
Dir
 
Speed
knots
Gust
knots
hPa Trend Height
m
Period
s
Dir
06/11:30pm 21.7 SSW 6 7 - - 0.0 - - - - - - -
06/11:00pm 22.3 SE 8 9 - - 0.0 - - - - - - -
06/10:30pm 22.4 SE 8 9 - - 0.0 - - - - - - -
06/10:00pm 22.1 SE 7 9 - - 0.0 - - - - - - -
06/09:30pm 22.3 SE 8 10 - - 0.0 - - - - - - -
06/09:00pm 22.3 ESE 7 9 - - 0.0 - - - - - - -
06/08:30pm 22.3 SE 7 8 - - 0.0 - - - - - - -
06/08:00pm 22.3 SE 8 10 - - 0.0 - - - - - - -
06/07:30pm 22.6 SE 9 11 - - 0.0 - - - - - - -
06/07:00pm 22.9 SE 9 12 - - 0.0 - - - - - - -
06/06:30pm 23.1 SE 10 12 - - 0.0 - - - - - - -
06/06:00pm 23.4 SE 10 12 - - 0.0 - - - - - - -
06/05:30pm 23.4 SE 11 13 - - 0.0 - - - - - - -
06/05:00pm 23.4 SE 11 13 - - 0.0 - - - - - - -
06/04:30pm 23.6 SE 11 13 - - 0.0 - - - - - - -
06/04:00pm 23.8 SE 10 12 - - 0.0 - - - - - - -
06/03:30pm 24.0 SE 11 13 - - 0.0 - - - - - - -
06/03:00pm 23.9 SE 11 13 - - 0.0 - - - - - - -
06/02:30pm 23.5 SSE 13 15 - - 0.0 - - - - - - -
06/02:00pm 23.6 SSE 12 15 - - 0.0 - - - - - - -
06/01:30pm 23.5 SSE 13 15 - - 0.0 - - - - - - -
06/01:00pm 23.6 SSE 12 15 - - 0.0 - - - - - - -

Other Formats:

Comma delimited format used in spreadsheet applications
http://www.bom.gov.au/fwo/IDN60701/IDN60701.95749.axf

JavaScript Object Notation format (JSON) in row-major order
http://www.bom.gov.au/fwo/IDN60701/IDN60701.95749.json